Terminal Aerodrome Forecast
Issued by NWS

Home | Current Version | Previous Version | Text Only | Print | Product List | Glossary On
Versions: 1 2 3 4 5 6 7 8 9 10 11 12 13 14 15 16 17 18
000
FTUS41 KBOX 270520
TAFACK
TAF
KACK 270520Z 2706/2806 33007KT P6SM SCT250
     FM271100 01006KT P6SM FEW250
     FM271600 16005KT P6SM SKC
     FM280100 20005KT P6SM FEW250=

USA.gov is the U.S. government's official web portal to all federal, state and local government web resources and services.